sensor_id;sensor_type;location;lat;lon;timestamp;P1;durP1;ratioP1;P2;durP2;ratioP2
5965;SDS011;3009;43.224;27.976;2023-08-17T00:01:18;8.87;;;7.07;;
5965;SDS011;3009;43.224;27.976;2023-08-17T00:03:47;7.47;;;6.87;;
5965;SDS011;3009;43.224;27.976;2023-08-17T00:06:16;7.97;;;7.20;;
5965;SDS011;3009;43.224;27.976;2023-08-17T00:08:44;13.10;;;11.17;;
5965;SDS011;3009;43.224;27.976;2023-08-17T00:11:14;14.13;;;8.00;;
5965;SDS011;3009;43.224;27.976;2023-08-17T00:13:46;8.13;;;6.07;;
5965;SDS011;3009;43.224;27.976;2023-08-17T00:16:16;10.90;;;6.40;;
5965;SDS011;3009;43.224;27.976;2023-08-17T00:18:45;7.00;;;6.40;;
5965;SDS011;3009;43.224;27.976;2023-08-17T00:21:15;6.97;;;6.27;;
5965;SDS011;3009;43.224;27.976;2023-08-17T00:23:46;6.70;;;6.20;;
5965;SDS011;3009;43.224;27.976;2023-08-17T00:26:15;13.93;;;7.00;;
5965;SDS011;3009;43.224;27.976;2023-08-17T00:28:46;7.07;;;6.37;;
5965;SDS011;3009;43.224;27.976;2023-08-17T00:31:16;9.80;;;6.43;;
5965;SDS011;3009;43.224;27.976;2023-08-17T00:33:45;7.57;;;6.87;;
5965;SDS011;3009;43.224;27.976;2023-08-17T00:36:14;7.80;;;7.10;;
5965;SDS011;3009;43.224;27.976;2023-08-17T00:38:43;7.47;;;6.87;;
5965;SDS011;3009;43.224;27.976;2023-08-17T00:41:15;7.83;;;6.70;;
5965;SDS011;3009;43.224;27.976;2023-08-17T00:43:46;7.00;;;6.50;;
5965;SDS011;3009;43.224;27.976;2023-08-17T00:46:15;7.20;;;6.50;;
5965;SDS011;3009;43.224;27.976;2023-08-17T00:48:47;9.00;;;6.63;;
5965;SDS011;3009;43.224;27.976;2023-08-17T00:51:16;7.30;;;6.80;;
5965;SDS011;3009;43.224;27.976;2023-08-17T00:53:47;7.70;;;6.50;;
5965;SDS011;3009;43.224;27.976;2023-08-17T00:56:15;8.37;;;7.17;;
5965;SDS011;3009;43.224;27.976;2023-08-17T00:58:45;7.47;;;6.70;;
5965;SDS011;3009;43.224;27.976;2023-08-17T01:01:14;10.20;;;6.77;;
5965;SDS011;3009;43.224;27.976;2023-08-17T01:03:42;7.10;;;6.40;;
5965;SDS011;3009;43.224;27.976;2023-08-17T01:06:10;8.93;;;6.57;;
5965;SDS011;3009;43.224;27.976;2023-08-17T01:08:40;7.10;;;6.47;;
5965;SDS011;3009;43.224;27.976;2023-08-17T01:11:16;7.53;;;6.90;;
5965;SDS011;3009;43.224;27.976;2023-08-17T01:13:55;6.43;;;6.13;;
5965;SDS011;3009;43.224;27.976;2023-08-17T01:16:31;6.60;;;6.10;;
5965;SDS011;3009;43.224;27.976;2023-08-17T01:19:07;6.90;;;6.30;;
5965;SDS011;3009;43.224;27.976;2023-08-17T01:21:38;10.77;;;6.87;;
5965;SDS011;3009;43.224;27.976;2023-08-17T01:24:13;7.40;;;6.90;;
5965;SDS011;3009;43.224;27.976;2023-08-17T01:26:44;9.13;;;6.67;;
5965;SDS011;3009;43.224;27.976;2023-08-17T01:29:14;9.27;;;7.03;;
5965;SDS011;3009;43.224;27.976;2023-08-17T01:31:45;7.00;;;6.50;;
5965;SDS011;3009;43.224;27.976;2023-08-17T01:34:22;8.10;;;7.20;;
5965;SDS011;3009;43.224;27.976;2023-08-17T01:36:55;7.47;;;6.70;;
5965;SDS011;3009;43.224;27.976;2023-08-17T01:39:30;7.73;;;5.97;;
5965;SDS011;3009;43.224;27.976;2023-08-17T01:42:05;7.33;;;6.63;;
5965;SDS011;3009;43.224;27.976;2023-08-17T01:44:35;7.23;;;6.50;;
5965;SDS011;3009;43.224;27.976;2023-08-17T01:47:03;7.50;;;6.90;;
5965;SDS011;3009;43.224;27.976;2023-08-17T01:49:32;7.83;;;6.90;;
5965;SDS011;3009;43.224;27.976;2023-08-17T01:52:00;8.53;;;6.60;;
5965;SDS011;3009;43.224;27.976;2023-08-17T01:54:30;8.83;;;6.27;;
5965;SDS011;3009;43.224;27.976;2023-08-17T01:56:59;8.23;;;6.30;;
5965;SDS011;3009;43.224;27.976;2023-08-17T01:59:27;7.03;;;6.43;;
5965;SDS011;3009;43.224;27.976;2023-08-17T02:01:55;8.27;;;7.47;;
5965;SDS011;3009;43.224;27.976;2023-08-17T02:04:24;7.87;;;7.17;;
5965;SDS011;3009;43.224;27.976;2023-08-17T02:06:52;8.20;;;7.40;;
5965;SDS011;3009;43.224;27.976;2023-08-17T02:09:21;7.07;;;6.47;;
5965;SDS011;3009;43.224;27.976;2023-08-17T02:11:53;7.17;;;6.50;;
5965;SDS011;3009;43.224;27.976;2023-08-17T02:14:21;7.27;;;6.53;;
5965;SDS011;3009;43.224;27.976;2023-08-17T02:16:49;11.90;;;6.97;;
5965;SDS011;3009;43.224;27.976;2023-08-17T02:19:19;7.37;;;6.70;;
5965;SDS011;3009;43.224;27.976;2023-08-17T02:21:47;7.60;;;7.00;;
5965;SDS011;3009;43.224;27.976;2023-08-17T02:24:15;7.53;;;6.83;;
5965;SDS011;3009;43.224;27.976;2023-08-17T02:26:44;7.77;;;7.03;;
5965;SDS011;3009;43.224;27.976;2023-08-17T02:29:14;8.90;;;6.97;;
5965;SDS011;3009;43.224;27.976;2023-08-17T02:31:42;9.40;;;6.73;;
5965;SDS011;3009;43.224;27.976;2023-08-17T02:34:10;7.60;;;6.90;;
5965;SDS011;3009;43.224;27.976;2023-08-17T02:36:39;10.03;;;7.33;;
5965;SDS011;3009;43.224;27.976;2023-08-17T02:39:07;9.87;;;7.10;;
5965;SDS011;3009;43.224;27.976;2023-08-17T02:41:35;10.03;;;7.30;;
5965;SDS011;3009;43.224;27.976;2023-08-17T02:44:04;8.17;;;7.27;;
5965;SDS011;3009;43.224;27.976;2023-08-17T02:46:34;8.53;;;6.70;;
5965;SDS011;3009;43.224;27.976;2023-08-17T02:49:03;10.37;;;7.70;;
5965;SDS011;3009;43.224;27.976;2023-08-17T02:51:32;8.23;;;7.43;;
5965;SDS011;3009;43.224;27.976;2023-08-17T02:54:00;7.67;;;7.00;;
5965;SDS011;3009;43.224;27.976;2023-08-17T02:56:28;8.10;;;7.50;;
5965;SDS011;3009;43.224;27.976;2023-08-17T02:58:57;7.60;;;6.97;;
5965;SDS011;3009;43.224;27.976;2023-08-17T03:01:25;10.43;;;7.30;;
5965;SDS011;3009;43.224;27.976;2023-08-17T03:03:55;7.93;;;7.13;;
5965;SDS011;3009;43.224;27.976;2023-08-17T03:06:24;7.73;;;7.13;;
5965;SDS011;3009;43.224;27.976;2023-08-17T03:08:52;8.00;;;7.30;;
5965;SDS011;3009;43.224;27.976;2023-08-17T03:11:20;10.57;;;7.33;;
5965;SDS011;3009;43.224;27.976;2023-08-17T03:13:49;7.60;;;7.10;;
5965;SDS011;3009;43.224;27.976;2023-08-17T03:16:17;9.00;;;8.13;;
5965;SDS011;3009;43.224;27.976;2023-08-17T03:18:45;8.13;;;7.43;;
5965;SDS011;3009;43.224;27.976;2023-08-17T03:21:16;13.40;;;7.70;;
5965;SDS011;3009;43.224;27.976;2023-08-17T03:23:45;7.73;;;7.03;;
5965;SDS011;3009;43.224;27.976;2023-08-17T03:26:13;9.10;;;7.67;;
5965;SDS011;3009;43.224;27.976;2023-08-17T03:28:42;8.83;;;7.60;;
5965;SDS011;3009;43.224;27.976;2023-08-17T03:31:10;11.97;;;8.20;;
5965;SDS011;3009;43.224;27.976;2023-08-17T03:33:39;8.70;;;8.10;;
5965;SDS011;3009;43.224;27.976;2023-08-17T03:36:07;8.43;;;7.83;;
5965;SDS011;3009;43.224;27.976;2023-08-17T03:38:37;18.43;;;8.00;;
5965;SDS011;3009;43.224;27.976;2023-08-17T03:41:06;8.70;;;7.40;;
5965;SDS011;3009;43.224;27.976;2023-08-17T03:43:34;10.23;;;7.20;;
5965;SDS011;3009;43.224;27.976;2023-08-17T03:46:03;8.67;;;7.80;;
5965;SDS011;3009;43.224;27.976;2023-08-17T03:48:32;7.83;;;7.13;;
5965;SDS011;3009;43.224;27.976;2023-08-17T03:51:00;8.77;;;7.43;;
5965;SDS011;3009;43.224;27.976;2023-08-17T03:53:29;9.70;;;7.20;;
5965;SDS011;3009;43.224;27.976;2023-08-17T03:55:59;10.90;;;8.13;;
5965;SDS011;3009;43.224;27.976;2023-08-17T03:58:27;10.90;;;8.17;;
5965;SDS011;3009;43.224;27.976;2023-08-17T04:01:00;12.53;;;7.30;;
5965;SDS011;3009;43.224;27.976;2023-08-17T04:03:28;7.60;;;7.10;;
5965;SDS011;3009;43.224;27.976;2023-08-17T04:05:57;7.70;;;7.10;;
5965;SDS011;3009;43.224;27.976;2023-08-17T04:08:26;9.77;;;8.43;;
5965;SDS011;3009;43.224;27.976;2023-08-17T04:10:54;8.57;;;7.73;;
5965;SDS011;3009;43.224;27.976;2023-08-17T04:13:24;7.90;;;7.10;;
5965;SDS011;3009;43.224;27.976;2023-08-17T04:15:54;10.40;;;8.07;;
5965;SDS011;3009;43.224;27.976;2023-08-17T04:18:22;11.03;;;7.37;;
5965;SDS011;3009;43.224;27.976;2023-08-17T04:20:51;9.33;;;8.27;;
5965;SDS011;3009;43.224;27.976;2023-08-17T04:23:21;11.83;;;7.97;;
5965;SDS011;3009;43.224;27.976;2023-08-17T04:25:49;8.80;;;7.30;;
5965;SDS011;3009;43.224;27.976;2023-08-17T04:28:18;9.33;;;7.40;;
5965;SDS011;3009;43.224;27.976;2023-08-17T04:30:48;7.73;;;7.00;;
5965;SDS011;3009;43.224;27.976;2023-08-17T04:33:20;9.80;;;8.07;;
5965;SDS011;3009;43.224;27.976;2023-08-17T04:35:49;11.03;;;7.87;;
5965;SDS011;3009;43.224;27.976;2023-08-17T04:38:17;10.53;;;7.50;;
5965;SDS011;3009;43.224;27.976;2023-08-17T04:40:46;9.97;;;7.17;;
5965;SDS011;3009;43.224;27.976;2023-08-17T04:43:15;10.20;;;7.33;;
5965;SDS011;3009;43.224;27.976;2023-08-17T04:45:44;8.17;;;7.47;;
5965;SDS011;3009;43.224;27.976;2023-08-17T04:48:15;8.87;;;7.23;;
5965;SDS011;3009;43.224;27.976;2023-08-17T04:50:44;13.33;;;7.53;;
5965;SDS011;3009;43.224;27.976;2023-08-17T04:53:12;8.37;;;7.33;;
5965;SDS011;3009;43.224;27.976;2023-08-17T04:55:41;13.07;;;7.47;;
5965;SDS011;3009;43.224;27.976;2023-08-17T04:58:09;8.17;;;7.47;;
5965;SDS011;3009;43.224;27.976;2023-08-17T05:00:38;8.60;;;7.87;;
5965;SDS011;3009;43.224;27.976;2023-08-17T05:03:06;9.70;;;7.47;;
5965;SDS011;3009;43.224;27.976;2023-08-17T05:05:50;11.27;;;7.63;;
5965;SDS011;3009;43.224;27.976;2023-08-17T05:08:19;10.90;;;7.03;;
5965;SDS011;3009;43.224;27.976;2023-08-17T05:10:49;10.37;;;6.83;;
5965;SDS011;3009;43.224;27.976;2023-08-17T05:13:17;8.50;;;6.63;;
5965;SDS011;3009;43.224;27.976;2023-08-17T05:15:45;9.20;;;7.50;;
5965;SDS011;3009;43.224;27.976;2023-08-17T05:18:14;10.67;;;7.63;;
5965;SDS011;3009;43.224;27.976;2023-08-17T05:20:42;9.30;;;8.40;;
5965;SDS011;3009;43.224;27.976;2023-08-17T05:23:12;14.50;;;8.10;;
5965;SDS011;3009;43.224;27.976;2023-08-17T05:25:40;10.03;;;7.37;;
5965;SDS011;3009;43.224;27.976;2023-08-17T05:28:09;9.70;;;7.37;;
5965;SDS011;3009;43.224;27.976;2023-08-17T05:30:37;8.70;;;7.80;;
5965;SDS011;3009;43.224;27.976;2023-08-17T05:33:05;7.93;;;7.23;;
5965;SDS011;3009;43.224;27.976;2023-08-17T05:35:34;8.50;;;7.70;;
5965;SDS011;3009;43.224;27.976;2023-08-17T05:38:03;10.07;;;8.13;;
5965;SDS011;3009;43.224;27.976;2023-08-17T05:40:33;9.20;;;8.50;;
5965;SDS011;3009;43.224;27.976;2023-08-17T05:43:01;13.10;;;7.97;;
5965;SDS011;3009;43.224;27.976;2023-08-17T05:45:29;13.80;;;8.30;;
5965;SDS011;3009;43.224;27.976;2023-08-17T05:47:58;10.90;;;8.97;;
5965;SDS011;3009;43.224;27.976;2023-08-17T05:50:26;11.37;;;8.80;;
5965;SDS011;3009;43.224;27.976;2023-08-17T05:52:55;14.73;;;8.33;;
5965;SDS011;3009;43.224;27.976;2023-08-17T05:55:24;9.83;;;8.67;;
5965;SDS011;3009;43.224;27.976;2023-08-17T05:57:54;9.80;;;8.80;;
5965;SDS011;3009;43.224;27.976;2023-08-17T06:00:22;11.60;;;8.83;;
5965;SDS011;3009;43.224;27.976;2023-08-17T06:02:51;9.03;;;8.10;;
5965;SDS011;3009;43.224;27.976;2023-08-17T06:05:22;8.57;;;7.87;;
5965;SDS011;3009;43.224;27.976;2023-08-17T06:07:52;10.70;;;8.50;;
5965;SDS011;3009;43.224;27.976;2023-08-17T06:10:21;9.33;;;8.20;;
5965;SDS011;3009;43.224;27.976;2023-08-17T06:12:51;18.80;;;9.00;;
5965;SDS011;3009;43.224;27.976;2023-08-17T06:15:21;9.37;;;8.33;;
5965;SDS011;3009;43.224;27.976;2023-08-17T06:17:50;12.70;;;9.30;;
5965;SDS011;3009;43.224;27.976;2023-08-17T06:20:18;8.47;;;7.63;;
5965;SDS011;3009;43.224;27.976;2023-08-17T06:22:47;9.67;;;8.77;;
5965;SDS011;3009;43.224;27.976;2023-08-17T06:25:16;11.60;;;8.73;;
5965;SDS011;3009;43.224;27.976;2023-08-17T06:27:45;10.67;;;8.10;;
5965;SDS011;3009;43.224;27.976;2023-08-17T06:30:16;11.90;;;8.73;;
5965;SDS011;3009;43.224;27.976;2023-08-17T06:32:46;12.13;;;8.63;;
5965;SDS011;3009;43.224;27.976;2023-08-17T06:35:15;9.10;;;8.23;;
5965;SDS011;3009;43.224;27.976;2023-08-17T06:37:43;13.73;;;8.73;;
5965;SDS011;3009;43.224;27.976;2023-08-17T06:40:14;9.43;;;8.60;;
5965;SDS011;3009;43.224;27.976;2023-08-17T06:42:42;10.17;;;9.20;;
5965;SDS011;3009;43.224;27.976;2023-08-17T06:45:11;10.37;;;9.20;;
5965;SDS011;3009;43.224;27.976;2023-08-17T06:47:39;14.37;;;9.27;;
5965;SDS011;3009;43.224;27.976;2023-08-17T06:50:09;9.37;;;8.47;;
5965;SDS011;3009;43.224;27.976;2023-08-17T06:52:38;11.53;;;9.20;;
5965;SDS011;3009;43.224;27.976;2023-08-17T06:55:07;9.43;;;8.47;;
5965;SDS011;3009;43.224;27.976;2023-08-17T06:57:36;12.83;;;9.43;;
5965;SDS011;3009;43.224;27.976;2023-08-17T07:00:05;9.20;;;8.30;;
5965;SDS011;3009;43.224;27.976;2023-08-17T07:02:35;13.83;;;8.40;;
5965;SDS011;3009;43.224;27.976;2023-08-17T07:05:21;9.73;;;8.83;;
5965;SDS011;3009;43.224;27.976;2023-08-17T07:07:50;12.33;;;7.93;;
5965;SDS011;3009;43.224;27.976;2023-08-17T07:10:19;9.03;;;8.10;;
5965;SDS011;3009;43.224;27.976;2023-08-17T07:12:48;11.77;;;8.83;;
5965;SDS011;3009;43.224;27.976;2023-08-17T07:15:16;9.10;;;8.20;;
5965;SDS011;3009;43.224;27.976;2023-08-17T07:17:44;9.27;;;8.33;;
5965;SDS011;3009;43.224;27.976;2023-08-17T07:20:13;10.40;;;9.40;;
5965;SDS011;3009;43.224;27.976;2023-08-17T07:22:44;14.53;;;9.00;;
5965;SDS011;3009;43.224;27.976;2023-08-17T07:25:12;20.30;;;9.23;;
5965;SDS011;3009;43.224;27.976;2023-08-17T07:27:41;9.70;;;8.67;;
5965;SDS011;3009;43.224;27.976;2023-08-17T07:30:10;9.03;;;8.33;;
5965;SDS011;3009;43.224;27.976;2023-08-17T07:32:39;9.73;;;8.53;;
5965;SDS011;3009;43.224;27.976;2023-08-17T07:35:07;9.97;;;8.20;;
5965;SDS011;3009;43.224;27.976;2023-08-17T07:37:36;10.40;;;9.40;;
5965;SDS011;3009;43.224;27.976;2023-08-17T07:40:06;9.47;;;8.63;;
5965;SDS011;3009;43.224;27.976;2023-08-17T07:42:35;9.50;;;8.67;;
5965;SDS011;3009;43.224;27.976;2023-08-17T07:45:04;10.23;;;9.00;;
5965;SDS011;3009;43.224;27.976;2023-08-17T07:47:34;14.30;;;8.73;;
5965;SDS011;3009;43.224;27.976;2023-08-17T07:50:03;11.00;;;9.43;;
5965;SDS011;3009;43.224;27.976;2023-08-17T07:52:33;9.60;;;8.40;;
5965;SDS011;3009;43.224;27.976;2023-08-17T07:55:01;13.20;;;8.80;;
5965;SDS011;3009;43.224;27.976;2023-08-17T07:57:31;10.40;;;9.50;;
5965;SDS011;3009;43.224;27.976;2023-08-17T08:00:00;11.03;;;9.20;;
5965;SDS011;3009;43.224;27.976;2023-08-17T08:02:28;9.50;;;8.70;;
5965;SDS011;3009;43.224;27.976;2023-08-17T08:04:57;11.70;;;9.67;;
5965;SDS011;3009;43.224;27.976;2023-08-17T08:07:25;11.27;;;8.60;;
5965;SDS011;3009;43.224;27.976;2023-08-17T08:09:54;17.53;;;9.70;;
5965;SDS011;3009;43.224;27.976;2023-08-17T08:12:22;10.67;;;9.57;;
5965;SDS011;3009;43.224;27.976;2023-08-17T08:14:52;8.97;;;8.17;;
5965;SDS011;3009;43.224;27.976;2023-08-17T08:17:21;10.83;;;9.73;;
5965;SDS011;3009;43.224;27.976;2023-08-17T08:19:49;10.43;;;9.43;;
5965;SDS011;3009;43.224;27.976;2023-08-17T08:22:17;9.47;;;8.63;;
5965;SDS011;3009;43.224;27.976;2023-08-17T08:24:46;8.90;;;8.17;;
5965;SDS011;3009;43.224;27.976;2023-08-17T08:27:14;14.97;;;9.37;;
5965;SDS011;3009;43.224;27.976;2023-08-17T08:29:43;11.60;;;8.77;;
5965;SDS011;3009;43.224;27.976;2023-08-17T08:32:12;8.80;;;8.10;;
5965;SDS011;3009;43.224;27.976;2023-08-17T08:34:41;10.53;;;9.07;;
5965;SDS011;3009;43.224;27.976;2023-08-17T08:37:09;12.70;;;9.30;;
5965;SDS011;3009;43.224;27.976;2023-08-17T08:39:47;8.50;;;7.70;;
5965;SDS011;3009;43.224;27.976;2023-08-17T08:42:17;9.60;;;8.70;;
5965;SDS011;3009;43.224;27.976;2023-08-17T08:44:45;9.37;;;7.60;;
5965;SDS011;3009;43.224;27.976;2023-08-17T08:47:16;9.90;;;8.20;;
5965;SDS011;3009;43.224;27.976;2023-08-17T08:49:48;9.70;;;8.20;;
5965;SDS011;3009;43.224;27.976;2023-08-17T08:52:22;9.50;;;8.40;;
5965;SDS011;3009;43.224;27.976;2023-08-17T08:54:52;17.30;;;8.20;;
5965;SDS011;3009;43.224;27.976;2023-08-17T08:57:24;9.23;;;8.50;;
5965;SDS011;3009;43.224;27.976;2023-08-17T08:59:56;12.93;;;8.47;;
5965;SDS011;3009;43.224;27.976;2023-08-17T09:02:28;14.50;;;7.70;;
5965;SDS011;3009;43.224;27.976;2023-08-17T09:04:57;8.87;;;8.07;;
5965;SDS011;3009;43.224;27.976;2023-08-17T09:07:27;11.93;;;8.33;;
5965;SDS011;3009;43.224;27.976;2023-08-17T09:09:58;15.10;;;8.57;;
5965;SDS011;3009;43.224;27.976;2023-08-17T09:12:26;8.80;;;8.03;;
5965;SDS011;3009;43.224;27.976;2023-08-17T09:15:06;9.10;;;8.20;;
5965;SDS011;3009;43.224;27.976;2023-08-17T09:17:37;12.40;;;8.63;;
5965;SDS011;3009;43.224;27.976;2023-08-17T09:20:06;10.43;;;7.97;;
5965;SDS011;3009;43.224;27.976;2023-08-17T09:22:37;18.13;;;8.10;;
5965;SDS011;3009;43.224;27.976;2023-08-17T09:25:07;10.30;;;7.83;;
5965;SDS011;3009;43.224;27.976;2023-08-17T09:27:36;9.20;;;8.43;;
5965;SDS011;3009;43.224;27.976;2023-08-17T09:30:05;8.27;;;7.57;;
5965;SDS011;3009;43.224;27.976;2023-08-17T09:32:34;9.30;;;8.33;;
5965;SDS011;3009;43.224;27.976;2023-08-17T09:35:05;15.30;;;8.60;;
5965;SDS011;3009;43.224;27.976;2023-08-17T09:37:34;9.93;;;9.10;;
5965;SDS011;3009;43.224;27.976;2023-08-17T09:40:03;13.63;;;8.20;;
5965;SDS011;3009;43.224;27.976;2023-08-17T09:42:34;9.60;;;7.70;;
5965;SDS011;3009;43.224;27.976;2023-08-17T09:45:03;10.20;;;7.97;;
5965;SDS011;3009;43.224;27.976;2023-08-17T09:47:32;8.90;;;8.10;;
5965;SDS011;3009;43.224;27.976;2023-08-17T09:50:03;7.87;;;7.17;;
5965;SDS011;3009;43.224;27.976;2023-08-17T09:52:38;8.50;;;7.80;;
5965;SDS011;3009;43.224;27.976;2023-08-17T09:55:07;9.60;;;7.97;;
5965;SDS011;3009;43.224;27.976;2023-08-17T09:57:37;10.53;;;8.20;;
5965;SDS011;3009;43.224;27.976;2023-08-17T10:00:08;8.77;;;7.97;;
5965;SDS011;3009;43.224;27.976;2023-08-17T10:02:37;10.43;;;8.23;;
5965;SDS011;3009;43.224;27.976;2023-08-17T10:05:07;10.50;;;8.33;;
5965;SDS011;3009;43.224;27.976;2023-08-17T10:07:38;16.77;;;8.47;;
5965;SDS011;3009;43.224;27.976;2023-08-17T10:10:11;9.27;;;8.47;;
5965;SDS011;3009;43.224;27.976;2023-08-17T10:12:44;19.83;;;8.40;;
5965;SDS011;3009;43.224;27.976;2023-08-17T10:15:21;10.20;;;7.87;;
5965;SDS011;3009;43.224;27.976;2023-08-17T10:17:55;12.20;;;8.80;;
5965;SDS011;3009;43.224;27.976;2023-08-17T10:20:34;11.47;;;8.90;;
5965;SDS011;3009;43.224;27.976;2023-08-17T10:23:10;9.57;;;8.50;;
5965;SDS011;3009;43.224;27.976;2023-08-17T10:25:45;8.90;;;8.10;;
5965;SDS011;3009;43.224;27.976;2023-08-17T10:28:17;10.43;;;8.73;;
5965;SDS011;3009;43.224;27.976;2023-08-17T10:30:48;9.33;;;8.27;;
5965;SDS011;3009;43.224;27.976;2023-08-17T10:33:16;9.63;;;8.67;;
5965;SDS011;3009;43.224;27.976;2023-08-17T10:35:48;10.20;;;9.20;;
5965;SDS011;3009;43.224;27.976;2023-08-17T10:38:17;10.50;;;8.40;;
5965;SDS011;3009;43.224;27.976;2023-08-17T10:40:46;10.23;;;8.80;;
5965;SDS011;3009;43.224;27.976;2023-08-17T10:43:55;11.70;;;9.77;;
5965;SDS011;3009;43.224;27.976;2023-08-17T10:46:34;10.30;;;9.40;;
5965;SDS011;3009;43.224;27.976;2023-08-17T10:49:03;10.27;;;9.23;;
5965;SDS011;3009;43.224;27.976;2023-08-17T10:51:34;10.47;;;9.47;;
5965;SDS011;3009;43.224;27.976;2023-08-17T10:54:03;9.53;;;8.70;;
5965;SDS011;3009;43.224;27.976;2023-08-17T10:56:32;9.83;;;8.83;;
5965;SDS011;3009;43.224;27.976;2023-08-17T10:59:01;11.87;;;8.97;;
5965;SDS011;3009;43.224;27.976;2023-08-17T11:01:33;10.17;;;8.20;;
5965;SDS011;3009;43.224;27.976;2023-08-17T11:04:09;11.03;;;9.27;;
5965;SDS011;3009;43.224;27.976;2023-08-17T11:06:41;19.63;;;9.00;;
5965;SDS011;3009;43.224;27.976;2023-08-17T11:09:10;9.00;;;8.23;;
5965;SDS011;3009;43.224;27.976;2023-08-17T11:11:40;15.13;;;9.10;;
5965;SDS011;3009;43.224;27.976;2023-08-17T11:14:08;10.83;;;9.10;;
5965;SDS011;3009;43.224;27.976;2023-08-17T11:16:36;12.20;;;8.63;;
5965;SDS011;3009;43.224;27.976;2023-08-17T11:19:05;8.50;;;7.70;;
5965;SDS011;3009;43.224;27.976;2023-08-17T11:21:40;12.57;;;9.50;;
5965;SDS011;3009;43.224;27.976;2023-08-17T11:24:10;12.83;;;9.20;;
5965;SDS011;3009;43.224;27.976;2023-08-17T11:26:38;10.27;;;9.17;;
5965;SDS011;3009;43.224;27.976;2023-08-17T11:29:06;15.03;;;9.50;;
5965;SDS011;3009;43.224;27.976;2023-08-17T11:31:35;22.17;;;9.23;;
5965;SDS011;3009;43.224;27.976;2023-08-17T11:34:04;10.37;;;9.07;;
5965;SDS011;3009;43.224;27.976;2023-08-17T11:36:32;14.80;;;9.80;;
5965;SDS011;3009;43.224;27.976;2023-08-17T11:39:02;10.60;;;9.13;;
5965;SDS011;3009;43.224;27.976;2023-08-17T11:41:36;10.40;;;9.00;;
5965;SDS011;3009;43.224;27.976;2023-08-17T11:44:04;9.77;;;8.63;;
5965;SDS011;3009;43.224;27.976;2023-08-17T11:46:33;11.50;;;9.43;;
5965;SDS011;3009;43.224;27.976;2023-08-17T11:49:01;10.40;;;9.30;;
5965;SDS011;3009;43.224;27.976;2023-08-17T11:51:30;9.47;;;8.53;;
5965;SDS011;3009;43.224;27.976;2023-08-17T11:53:59;10.77;;;8.90;;
5965;SDS011;3009;43.224;27.976;2023-08-17T11:56:31;9.33;;;8.40;;
5965;SDS011;3009;43.224;27.976;2023-08-17T11:59:07;17.40;;;9.27;;
5965;SDS011;3009;43.224;27.976;2023-08-17T12:01:37;13.10;;;9.60;;
5965;SDS011;3009;43.224;27.976;2023-08-17T12:04:06;14.93;;;8.43;;
5965;SDS011;3009;43.224;27.976;2023-08-17T12:06:35;10.70;;;9.27;;
5965;SDS011;3009;43.224;27.976;2023-08-17T12:09:06;13.13;;;8.80;;
5965;SDS011;3009;43.224;27.976;2023-08-17T12:11:36;10.97;;;9.33;;
5965;SDS011;3009;43.224;27.976;2023-08-17T12:14:08;12.30;;;10.10;;
5965;SDS011;3009;43.224;27.976;2023-08-17T12:16:45;17.57;;;9.83;;
5965;SDS011;3009;43.224;27.976;2023-08-17T12:19:15;11.50;;;10.20;;
5965;SDS011;3009;43.224;27.976;2023-08-17T12:21:43;10.10;;;9.20;;
5965;SDS011;3009;43.224;27.976;2023-08-17T12:24:11;10.50;;;9.60;;
5965;SDS011;3009;43.224;27.976;2023-08-17T12:26:42;11.30;;;10.10;;
5965;SDS011;3009;43.224;27.976;2023-08-17T12:29:11;20.97;;;9.40;;
5965;SDS011;3009;43.224;27.976;2023-08-17T12:31:39;19.50;;;9.73;;
5965;SDS011;3009;43.224;27.976;2023-08-17T12:34:08;12.57;;;9.97;;
5965;SDS011;3009;43.224;27.976;2023-08-17T12:36:37;12.70;;;9.80;;
5965;SDS011;3009;43.224;27.976;2023-08-17T12:39:05;10.80;;;9.70;;
5965;SDS011;3009;43.224;27.976;2023-08-17T12:41:33;12.60;;;10.03;;
5965;SDS011;3009;43.224;27.976;2023-08-17T12:44:03;10.03;;;9.13;;
5965;SDS011;3009;43.224;27.976;2023-08-17T12:46:32;13.47;;;9.60;;
5965;SDS011;3009;43.224;27.976;2023-08-17T12:49:01;9.87;;;8.97;;
5965;SDS011;3009;43.224;27.976;2023-08-17T12:51:29;15.70;;;9.90;;
5965;SDS011;3009;43.224;27.976;2023-08-17T12:53:58;12.27;;;10.20;;
5965;SDS011;3009;43.224;27.976;2023-08-17T12:56:26;11.30;;;9.57;;
5965;SDS011;3009;43.224;27.976;2023-08-17T12:58:54;10.47;;;9.47;;
5965;SDS011;3009;43.224;27.976;2023-08-17T13:01:30;17.70;;;10.17;;
5965;SDS011;3009;43.224;27.976;2023-08-17T13:03:58;11.70;;;10.77;;
5965;SDS011;3009;43.224;27.976;2023-08-17T13:06:26;13.30;;;10.13;;
5965;SDS011;3009;43.224;27.976;2023-08-17T13:09:13;26.17;;;12.23;;
5965;SDS011;3009;43.224;27.976;2023-08-17T13:11:42;15.60;;;11.40;;
5965;SDS011;3009;43.224;27.976;2023-08-17T13:14:10;11.30;;;10.40;;
5965;SDS011;3009;43.224;27.976;2023-08-17T13:16:40;10.57;;;9.63;;
5965;SDS011;3009;43.224;27.976;2023-08-17T13:19:09;11.80;;;10.17;;
5965;SDS011;3009;43.224;27.976;2023-08-17T13:21:37;15.33;;;10.60;;
5965;SDS011;3009;43.224;27.976;2023-08-17T13:24:06;18.10;;;10.77;;
5965;SDS011;3009;43.224;27.976;2023-08-17T13:26:35;10.30;;;9.43;;
5965;SDS011;3009;43.224;27.976;2023-08-17T13:29:03;11.00;;;9.80;;
5965;SDS011;3009;43.224;27.976;2023-08-17T13:31:32;15.40;;;9.60;;
5965;SDS011;3009;43.224;27.976;2023-08-17T13:34:02;10.07;;;9.07;;
5965;SDS011;3009;43.224;27.976;2023-08-17T13:36:30;12.70;;;10.50;;
5965;SDS011;3009;43.224;27.976;2023-08-17T13:38:58;20.40;;;11.27;;
5965;SDS011;3009;43.224;27.976;2023-08-17T13:41:26;13.30;;;9.70;;
5965;SDS011;3009;43.224;27.976;2023-08-17T13:43:55;12.30;;;10.60;;
5965;SDS011;3009;43.224;27.976;2023-08-17T13:46:26;13.20;;;10.03;;
5965;SDS011;3009;43.224;27.976;2023-08-17T13:48:55;12.47;;;10.40;;
5965;SDS011;3009;43.224;27.976;2023-08-17T13:51:25;15.80;;;10.27;;
5965;SDS011;3009;43.224;27.976;2023-08-17T13:53:54;11.83;;;9.53;;
5965;SDS011;3009;43.224;27.976;2023-08-17T13:56:22;11.63;;;10.53;;
5965;SDS011;3009;43.224;27.976;2023-08-17T13:58:52;15.23;;;10.37;;
5965;SDS011;3009;43.224;27.976;2023-08-17T14:01:21;14.43;;;10.00;;
5965;SDS011;3009;43.224;27.976;2023-08-17T14:03:50;21.60;;;10.70;;
5965;SDS011;3009;43.224;27.976;2023-08-17T14:06:18;17.87;;;10.60;;
5965;SDS011;3009;43.224;27.976;2023-08-17T14:08:48;12.60;;;10.53;;
5965;SDS011;3009;43.224;27.976;2023-08-17T14:11:17;13.10;;;10.50;;
5965;SDS011;3009;43.224;27.976;2023-08-17T14:13:46;11.23;;;9.53;;
5965;SDS011;3009;43.224;27.976;2023-08-17T14:16:14;12.00;;;10.00;;
5965;SDS011;3009;43.224;27.976;2023-08-17T14:18:43;13.13;;;9.97;;
5965;SDS011;3009;43.224;27.976;2023-08-17T14:21:11;11.40;;;10.20;;
5965;SDS011;3009;43.224;27.976;2023-08-17T14:23:39;18.77;;;10.63;;
5965;SDS011;3009;43.224;27.976;2023-08-17T14:26:09;10.57;;;9.20;;
5965;SDS011;3009;43.224;27.976;2023-08-17T14:28:37;17.70;;;9.60;;
5965;SDS011;3009;43.224;27.976;2023-08-17T14:31:11;15.60;;;8.20;;
5965;SDS011;3009;43.224;27.976;2023-08-17T14:33:42;11.67;;;9.00;;
5965;SDS011;3009;43.224;27.976;2023-08-17T14:36:10;11.30;;;9.33;;
5965;SDS011;3009;43.224;27.976;2023-08-17T14:38:45;11.57;;;9.00;;
5965;SDS011;3009;43.224;27.976;2023-08-17T14:41:15;14.97;;;9.20;;
5965;SDS011;3009;43.224;27.976;2023-08-17T14:43:43;10.80;;;8.60;;
5965;SDS011;3009;43.224;27.976;2023-08-17T14:46:12;15.10;;;9.50;;
5965;SDS011;3009;43.224;27.976;2023-08-17T14:48:41;10.43;;;9.40;;
5965;SDS011;3009;43.224;27.976;2023-08-17T14:51:09;10.63;;;8.70;;
5965;SDS011;3009;43.224;27.976;2023-08-17T14:53:38;11.57;;;8.30;;
5965;SDS011;3009;43.224;27.976;2023-08-17T14:56:06;10.60;;;8.77;;
5965;SDS011;3009;43.224;27.976;2023-08-17T14:58:36;11.63;;;8.63;;
5965;SDS011;3009;43.224;27.976;2023-08-17T15:01:05;11.87;;;9.73;;
5965;SDS011;3009;43.224;27.976;2023-08-17T15:03:33;10.47;;;9.13;;
5965;SDS011;3009;43.224;27.976;2023-08-17T15:06:02;14.07;;;9.53;;
5965;SDS011;3009;43.224;27.976;2023-08-17T15:08:30;10.33;;;9.33;;